createdAt,value
2023-02-14T00:00:48.535Z,90.70
2023-02-14T00:03:15.269Z,90.80
2023-02-14T00:05:41.468Z,90.90
2023-02-14T00:08:08.587Z,90.70
2023-02-14T00:10:35.275Z,90.90
2023-02-14T00:13:01.574Z,91.10
2023-02-14T00:15:27.723Z,91.50
2023-02-14T00:17:55.633Z,91.40
2023-02-14T00:20:23.070Z,91.30
2023-02-14T00:22:49.917Z,91.30
2023-02-14T00:25:16.221Z,91.60
2023-02-14T00:27:42.457Z,91.40
2023-02-14T00:30:09.594Z,91.60
2023-02-14T00:32:40.189Z,91.50
2023-02-14T00:35:07.384Z,91.30
2023-02-14T00:37:34.688Z,91.50
2023-02-14T00:40:00.905Z,91.40
2023-02-14T00:42:27.393Z,91.30
2023-02-14T00:44:53.792Z,91.50
2023-02-14T00:47:20.258Z,91.70
2023-02-14T00:49:46.364Z,91.80
2023-02-14T00:52:13.127Z,91.60
2023-02-14T00:54:39.862Z,91.30
2023-02-14T00:57:06.026Z,91.60
2023-02-14T00:59:32.170Z,91.40
2023-02-14T01:01:58.402Z,91.60
2023-02-14T01:04:25.557Z,91.60
2023-02-14T01:06:51.814Z,91.80
2023-02-14T01:09:18.963Z,91.70
2023-02-14T01:11:45.405Z,91.80
2023-02-14T01:14:13.797Z,91.40
2023-02-14T01:16:40.455Z,91.70
2023-02-14T01:19:08.643Z,91.60
2023-02-14T01:21:35.223Z,91.20
2023-02-14T01:24:04.288Z,91.60
2023-02-14T01:26:30.555Z,91.70
2023-02-14T01:28:56.746Z,91.60
2023-02-14T01:31:29.632Z,91.70
2023-02-14T01:33:56.757Z,91.20
2023-02-14T01:36:29.233Z,91.20
2023-02-14T01:38:58.601Z,91.30
2023-02-14T01:41:26.809Z,91.50
2023-02-14T01:45:19.529Z,91.60
2023-02-14T01:47:47.176Z,91.70
2023-02-14T01:50:19.237Z,92.00
2023-02-14T01:54:07.224Z,92.00
2023-02-14T01:56:42.056Z,91.70
2023-02-14T01:59:10.821Z,91.80
2023-02-14T02:01:38.405Z,91.70
2023-02-14T02:04:13.463Z,91.90
2023-02-14T02:06:48.203Z,91.80
2023-02-14T02:09:42.301Z,91.60
2023-02-14T02:12:09.541Z,92.10
2023-02-14T02:14:35.677Z,91.80
2023-02-14T02:24:39.072Z,91.90
2023-02-14T02:29:07.308Z,91.80
2023-02-14T02:31:57.511Z,91.70
2023-02-14T02:34:49.912Z,92.00
2023-02-14T02:38:07.968Z,91.80
2023-02-14T02:41:11.694Z,91.60
2023-02-14T02:47:31.407Z,91.50
2023-02-14T02:50:48.358Z,91.80
2023-02-14T02:53:40.466Z,91.60
2023-02-14T02:56:46.365Z,91.60
2023-02-14T02:59:45.698Z,91.30
2023-02-14T03:04:29.872Z,91.60
2023-02-14T03:06:56.198Z,91.80
2023-02-14T03:10:53.267Z,91.80
2023-02-14T03:13:47.802Z,91.70
2023-02-14T03:16:35.283Z,91.50
2023-02-14T03:19:52.786Z,91.70
2023-02-14T03:25:53.491Z,94.40
2023-02-14T03:30:59.353Z,91.50
2023-02-14T03:33:55.844Z,91.60
2023-02-14T03:36:25.378Z,91.40
2023-02-14T03:39:36.705Z,91.50
2023-02-14T03:42:15.555Z,91.30
2023-02-14T03:44:43.120Z,91.40
2023-02-14T03:47:15.082Z,94.20
2023-02-14T03:49:55.574Z,91.70
2023-02-14T03:52:23.621Z,91.20
2023-02-14T03:54:51.580Z,90.80
2023-02-14T03:57:26.621Z,90.80
2023-02-14T03:59:53.147Z,91.30
2023-02-14T04:02:38.810Z,90.90
2023-02-14T04:05:11.791Z,90.70
2023-02-14T04:07:52.269Z,91.00
2023-02-14T04:10:20.246Z,91.10
2023-02-14T04:12:47.787Z,91.20
2023-02-14T04:15:14.132Z,91.00
2023-02-14T04:19:32.865Z,91.00
2023-02-14T04:22:00.879Z,90.50
2023-02-14T04:24:27.643Z,91.10
2023-02-14T04:26:54.565Z,90.90
2023-02-14T04:29:21.395Z,90.90
2023-02-14T04:31:47.766Z,90.80
2023-02-14T04:34:15.467Z,90.70
2023-02-14T04:36:41.813Z,91.00
2023-02-14T04:39:07.983Z,90.90
2023-02-14T04:41:34.174Z,91.00
2023-02-14T04:44:01.131Z,90.80
2023-02-14T04:46:29.023Z,91.00
2023-02-14T04:48:56.278Z,90.90
2023-02-14T04:51:22.657Z,90.90
2023-02-14T04:53:49.394Z,90.90
2023-02-14T04:56:16.956Z,90.40
2023-02-14T04:58:43.112Z,90.70
2023-02-14T05:01:09.669Z,90.60
2023-02-14T05:03:38.179Z,90.70
2023-02-14T05:06:06.287Z,90.60
2023-02-14T05:08:35.146Z,90.80
2023-02-14T05:11:01.646Z,90.60
2023-02-14T05:13:28.008Z,90.60
2023-02-14T05:15:55.148Z,90.10
2023-02-14T05:18:21.854Z,90.30
2023-02-14T05:20:52.679Z,90.80
2023-02-14T05:23:19.866Z,90.80
2023-02-14T05:25:48.405Z,90.90
2023-02-14T05:28:14.630Z,90.80
2023-02-14T05:30:42.097Z,90.60
2023-02-14T05:33:09.128Z,90.60
2023-02-14T05:35:35.695Z,91.10
2023-02-14T05:38:01.848Z,90.70
2023-02-14T05:40:29.132Z,91.00
2023-02-14T05:42:56.368Z,91.30
2023-02-14T05:45:23.505Z,91.00
2023-02-14T05:47:49.669Z,90.80
2023-02-14T05:50:17.440Z,90.80
2023-02-14T05:52:45.272Z,91.10
2023-02-14T05:55:12.012Z,90.80
2023-02-14T05:57:38.937Z,90.80
2023-02-14T06:00:07.234Z,90.70
2023-02-14T06:02:33.458Z,90.60
2023-02-14T06:05:00.199Z,90.70
2023-02-14T06:07:26.416Z,90.50
2023-02-14T06:09:52.659Z,90.30
2023-02-14T06:12:18.828Z,90.40
2023-02-14T06:14:45.076Z,90.70
2023-02-14T06:17:11.379Z,90.80
2023-02-14T06:19:39.208Z,90.90
2023-02-14T06:22:05.355Z,91.10
2023-02-14T06:24:32.121Z,90.60
2023-02-14T06:26:59.820Z,90.90
2023-02-14T06:29:26.121Z,90.80
2023-02-14T06:31:52.809Z,90.80
2023-02-14T06:34:19.364Z,90.70
2023-02-14T06:36:45.970Z,90.80
2023-02-14T06:39:12.335Z,90.70
2023-02-14T06:41:39.059Z,91.00
2023-02-14T06:44:05.832Z,90.80
2023-02-14T06:46:32.189Z,90.80
2023-02-14T06:48:58.543Z,90.80
2023-02-14T06:51:24.776Z,90.40
2023-02-14T06:53:51.418Z,90.80
2023-02-14T06:56:18.675Z,90.50
2023-02-14T06:58:44.981Z,90.40
2023-02-14T07:01:11.375Z,90.20
2023-02-14T07:03:37.806Z,90.30
2023-02-14T07:06:05.180Z,90.40
2023-02-14T07:08:32.462Z,90.40
2023-02-14T07:11:05.550Z,90.30
2023-02-14T07:13:32.082Z,90.30
2023-02-14T07:15:58.605Z,90.20
2023-02-14T07:18:24.924Z,90.30
2023-02-14T07:20:51.885Z,90.20
2023-02-14T07:23:19.069Z,90.10
2023-02-14T07:25:46.808Z,90.60
2023-02-14T07:28:13.570Z,90.00
2023-02-14T07:30:41.407Z,89.20
2023-02-14T07:33:08.003Z,89.50
2023-02-14T07:35:34.805Z,89.40
2023-02-14T07:38:00.984Z,88.90
2023-02-14T07:40:29.821Z,90.00
2023-02-14T07:42:56.967Z,89.30
2023-02-14T07:45:23.583Z,89.30
2023-02-14T07:47:51.398Z,88.50
2023-02-14T07:50:19.611Z,88.00
2023-02-14T07:52:45.922Z,87.90
2023-02-14T07:55:12.409Z,88.60
2023-02-14T07:57:38.778Z,88.00
2023-02-14T08:00:06.092Z,88.30
2023-02-14T08:02:33.231Z,87.90
2023-02-14T08:04:59.769Z,87.20
2023-02-14T08:07:26.289Z,86.90
2023-02-14T08:09:52.675Z,87.20
2023-02-14T08:12:37.786Z,85.90
2023-02-14T08:15:23.171Z,86.30
2023-02-14T08:17:50.516Z,86.40
2023-02-14T08:20:17.171Z,86.10
2023-02-14T08:22:43.994Z,86.20
2023-02-14T08:25:10.844Z,85.50
2023-02-14T08:27:37.826Z,85.40
2023-02-14T08:30:04.629Z,85.40
2023-02-14T08:32:31.112Z,85.60
2023-02-14T08:34:57.996Z,85.70
2023-02-14T08:37:24.428Z,84.40
2023-02-14T08:39:50.691Z,84.10
2023-02-14T08:42:17.927Z,84.20
2023-02-14T08:44:44.440Z,84.80
2023-02-14T08:47:11.919Z,85.00
2023-02-14T08:49:38.950Z,84.00
2023-02-14T08:52:05.812Z,83.60
2023-02-14T08:54:32.659Z,83.20
2023-02-14T08:56:59.469Z,83.50
2023-02-14T08:59:26.190Z,83.00
2023-02-14T09:01:52.795Z,83.30
2023-02-14T09:04:19.431Z,81.70
2023-02-14T09:06:46.605Z,82.20
2023-02-14T09:09:13.678Z,81.20
2023-02-14T09:11:40.620Z,81.90
2023-02-14T09:14:07.984Z,81.30
2023-02-14T09:16:34.703Z,81.10
2023-02-14T09:19:01.274Z,82.10
2023-02-14T09:21:29.811Z,81.30
2023-02-14T09:23:57.679Z,80.50
2023-02-14T09:26:24.547Z,81.00
2023-02-14T09:28:51.403Z,80.60
2023-02-14T09:31:19.705Z,80.80
2023-02-14T09:33:46.600Z,80.70
2023-02-14T09:36:32.027Z,80.90
2023-02-14T09:38:58.523Z,79.60
2023-02-14T09:43:01.949Z,79.60
2023-02-14T09:45:29.135Z,84.30
2023-02-14T09:47:58.272Z,80.00
2023-02-14T09:51:29.900Z,79.90
2023-02-14T09:54:14.317Z,80.30
2023-02-14T09:56:53.720Z,80.30
2023-02-14T10:01:15.602Z,79.00
2023-02-14T10:04:17.234Z,79.70
2023-02-14T10:06:52.255Z,78.90
2023-02-14T10:09:43.683Z,79.20
2023-02-14T10:12:20.502Z,79.20
2023-02-14T10:14:49.288Z,78.50
2023-02-14T10:17:36.246Z,79.00
2023-02-14T10:20:06.435Z,78.20
2023-02-14T10:22:42.747Z,76.90
2023-02-14T10:25:22.637Z,77.80
2023-02-14T10:27:49.512Z,79.00
2023-02-14T10:30:18.043Z,77.30
2023-02-14T10:33:00.860Z,77.90
2023-02-14T10:35:45.067Z,77.90
2023-02-14T10:38:42.069Z,77.00
2023-02-14T10:41:20.282Z,77.40
2023-02-14T10:44:15.010Z,76.60
2023-02-14T10:51:42.024Z,76.20
2023-02-14T10:54:57.054Z,77.00
2023-02-14T10:57:38.048Z,76.30
2023-02-14T11:00:06.592Z,76.60
2023-02-14T11:02:39.453Z,76.40
2023-02-14T11:05:06.443Z,74.80
2023-02-14T11:07:32.935Z,75.40
2023-02-14T11:10:00.253Z,76.60
2023-02-14T11:12:37.762Z,75.20
2023-02-14T11:16:57.018Z,74.60
2023-02-14T11:19:37.217Z,75.80
2023-02-14T11:22:08.496Z,75.10
2023-02-14T11:24:36.806Z,75.60
2023-02-14T11:27:14.276Z,74.80
2023-02-14T11:29:47.370Z,74.50
2023-02-14T11:32:23.560Z,72.70
2023-02-14T11:35:08.077Z,74.60
2023-02-14T11:37:52.778Z,73.50
2023-02-14T11:40:38.821Z,72.50
2023-02-14T11:43:41.980Z,72.40
2023-02-14T11:46:36.046Z,72.90
2023-02-14T11:49:06.226Z,71.20
2023-02-14T11:51:42.759Z,70.10
2023-02-14T11:54:14.424Z,70.30
2023-02-14T11:57:34.263Z,71.30
2023-02-14T12:00:03.873Z,72.80
2023-02-14T12:02:46.776Z,71.40
2023-02-14T12:05:32.110Z,73.00
2023-02-14T12:08:05.304Z,74.60
2023-02-14T12:10:34.629Z,72.70
2023-02-14T12:13:24.298Z,71.20
2023-02-14T12:15:53.144Z,74.00
2023-02-14T12:20:16.498Z,73.80
2023-02-14T12:24:20.801Z,73.40
2023-02-14T12:27:00.368Z,73.00
2023-02-14T12:29:44.485Z,71.40
2023-02-14T12:32:29.858Z,72.70
2023-02-14T12:35:21.301Z,72.00
2023-02-14T12:39:48.932Z,73.40
2023-02-14T12:43:24.372Z,73.80
2023-02-14T12:46:48.384Z,72.90
2023-02-14T12:49:34.814Z,72.60
2023-02-14T12:52:22.429Z,73.50
2023-02-14T12:57:00.701Z,71.70
2023-02-14T12:59:57.077Z,73.70
2023-02-14T13:03:02.442Z,71.80
2023-02-14T13:09:08.805Z,72.10
2023-02-14T13:15:02.143Z,72.00
2023-02-14T13:21:02.218Z,73.40
2023-02-14T13:23:43.516Z,72.90
2023-02-14T13:26:12.269Z,73.00
2023-02-14T13:28:52.936Z,73.00
2023-02-14T13:31:19.504Z,73.90
2023-02-14T13:35:23.153Z,73.00
2023-02-14T13:37:53.323Z,74.20
2023-02-14T13:40:24.316Z,75.80
2023-02-14T13:42:55.763Z,73.20
2023-02-14T13:48:08.637Z,71.70
2023-02-14T13:51:22.788Z,73.80
2023-02-14T13:53:51.862Z,73.50
2023-02-14T13:56:41.122Z,73.40
2023-02-14T13:59:29.144Z,72.10
2023-02-14T14:02:04.561Z,72.50
2023-02-14T14:04:35.588Z,71.30
2023-02-14T14:07:23.758Z,74.20
2023-02-14T14:09:55.292Z,74.80
2023-02-14T14:12:56.208Z,74.00
2023-02-14T14:15:24.573Z,72.40
2023-02-14T14:18:30.042Z,73.20
2023-02-14T14:20:57.873Z,73.10
2023-02-14T14:23:36.419Z,72.90
2023-02-14T14:26:30.033Z,72.10
2023-02-14T14:28:56.462Z,73.50
2023-02-14T14:31:23.310Z,74.10
2023-02-14T14:33:58.360Z,75.10
2023-02-14T14:36:25.779Z,74.80
2023-02-14T14:38:54.733Z,74.80
2023-02-14T14:41:29.661Z,75.60
2023-02-14T14:43:59.707Z,76.50
2023-02-14T14:46:28.046Z,74.90
2023-02-14T14:48:56.317Z,76.00
2023-02-14T14:51:25.834Z,77.40
2023-02-14T14:54:17.725Z,77.70
2023-02-14T14:56:59.176Z,77.70
2023-02-14T14:59:33.954Z,76.00
2023-02-14T15:02:01.210Z,76.50
2023-02-14T15:04:31.089Z,76.30
2023-02-14T15:07:30.331Z,76.20
2023-02-14T15:09:58.061Z,76.80
2023-02-14T15:12:44.499Z,77.50
2023-02-14T15:15:16.072Z,77.50
2023-02-14T15:17:44.735Z,77.50
2023-02-14T15:20:20.904Z,78.00
2023-02-14T15:22:49.913Z,77.50
2023-02-14T15:25:26.497Z,79.30
2023-02-14T15:27:54.932Z,77.90
2023-02-14T15:30:30.003Z,77.20
2023-02-14T15:32:58.678Z,78.40
2023-02-14T15:35:28.647Z,78.30
2023-02-14T15:37:56.724Z,78.10
2023-02-14T15:40:25.811Z,80.40
2023-02-14T15:42:58.374Z,79.30
2023-02-14T15:45:31.219Z,78.90
2023-02-14T15:48:04.054Z,78.70
2023-02-14T15:50:32.674Z,79.90
2023-02-14T15:53:05.956Z,80.80
2023-02-14T15:55:32.414Z,79.90
2023-02-14T15:58:06.609Z,79.60
2023-02-14T16:00:33.335Z,80.70
2023-02-14T16:03:06.754Z,80.70
2023-02-14T16:05:33.776Z,79.80
2023-02-14T16:08:05.185Z,79.30
2023-02-14T16:10:38.944Z,79.30
2023-02-14T16:13:42.913Z,79.40
2023-02-14T16:16:11.482Z,83.10
2023-02-14T16:18:42.872Z,82.90
2023-02-14T16:21:31.629Z,83.30
2023-02-14T16:24:11.107Z,83.70
2023-02-14T16:26:39.967Z,83.60
2023-02-14T16:29:10.065Z,83.30
2023-02-14T16:31:51.919Z,83.80
2023-02-14T16:34:28.741Z,84.00
2023-02-14T16:36:56.613Z,83.80
2023-02-14T16:39:24.320Z,83.70
2023-02-14T16:41:52.934Z,84.70
2023-02-14T16:44:19.621Z,85.00
2023-02-14T16:46:46.164Z,85.00
2023-02-14T16:49:14.586Z,85.20
2023-02-14T16:51:43.160Z,85.90
2023-02-14T16:54:18.371Z,85.60
2023-02-14T16:56:50.769Z,85.60
2023-02-14T16:59:17.411Z,86.50
2023-02-14T17:01:44.656Z,86.40
2023-02-14T17:04:11.092Z,87.10
2023-02-14T17:06:39.289Z,87.20
2023-02-14T17:09:09.258Z,88.20
2023-02-14T17:11:40.051Z,87.60
2023-02-14T17:14:08.388Z,88.90
2023-02-14T17:16:35.053Z,88.90
2023-02-14T17:19:01.915Z,89.10
2023-02-14T17:21:30.287Z,88.60
2023-02-14T17:23:58.173Z,87.20
2023-02-14T17:26:25.472Z,86.30
2023-02-14T17:28:51.951Z,87.60
2023-02-14T17:31:19.897Z,87.00
2023-02-14T17:33:47.942Z,87.20
2023-02-14T17:36:15.681Z,87.80
2023-02-14T17:38:45.319Z,87.90
2023-02-14T17:41:22.629Z,87.70
2023-02-14T17:43:49.878Z,87.80
2023-02-14T17:46:18.400Z,88.00
2023-02-14T17:48:46.430Z,88.10
2023-02-14T17:51:14.670Z,88.60
2023-02-14T17:53:41.962Z,88.00
2023-02-14T17:56:23.076Z,88.20
2023-02-14T17:58:50.823Z,89.50
2023-02-14T18:01:23.409Z,89.20
2023-02-14T18:03:52.012Z,89.70
2023-02-14T18:06:19.312Z,90.00
2023-02-14T18:08:50.531Z,90.30
2023-02-14T18:11:19.504Z,90.80
2023-02-14T18:13:48.333Z,91.10
2023-02-14T18:16:17.561Z,90.90
2023-02-14T18:18:44.787Z,90.60
2023-02-14T18:21:14.146Z,90.70
2023-02-14T18:23:43.518Z,90.20
2023-02-14T18:26:11.857Z,90.20
2023-02-14T18:28:39.999Z,90.60
2023-02-14T18:31:13.604Z,91.10
2023-02-14T18:33:40.686Z,91.20
2023-02-14T18:36:11.611Z,91.10
2023-02-14T18:38:40.204Z,91.50
2023-02-14T18:41:08.801Z,91.50
2023-02-14T18:43:36.400Z,91.80
2023-02-14T18:46:09.267Z,92.10
2023-02-14T18:48:35.770Z,92.30
2023-02-14T18:51:15.193Z,92.60
2023-02-14T18:53:43.528Z,92.70
2023-02-14T18:56:15.548Z,92.90
2023-02-14T18:58:46.908Z,93.40
2023-02-14T19:01:18.570Z,92.90
2023-02-14T19:03:45.778Z,92.80
2023-02-14T19:06:12.506Z,92.60
2023-02-14T19:08:40.184Z,92.80
2023-02-14T19:11:11.385Z,92.40
2023-02-14T19:13:42.116Z,92.90
2023-02-14T19:16:15.408Z,92.60
2023-02-14T19:18:44.700Z,92.60
2023-02-14T19:21:20.491Z,92.30
2023-02-14T19:23:48.388Z,92.30
2023-02-14T19:26:22.090Z,92.50
2023-02-14T19:28:50.491Z,92.60
2023-02-14T19:31:18.421Z,92.50
2023-02-14T19:33:47.156Z,93.00
2023-02-14T19:36:16.101Z,92.50
2023-02-14T19:38:45.808Z,92.80
2023-02-14T19:41:17.112Z,93.10
2023-02-14T19:43:45.454Z,93.10
2023-02-14T19:46:14.132Z,93.40
2023-02-14T19:48:41.474Z,93.90
2023-02-14T19:51:27.194Z,93.60
2023-02-14T19:53:55.720Z,96.40
2023-02-14T19:56:26.165Z,94.60
2023-02-14T19:58:53.721Z,95.00
2023-02-14T20:01:30.657Z,95.30
2023-02-14T20:03:57.556Z,95.80
2023-02-14T20:06:25.611Z,95.80
2023-02-14T20:08:54.713Z,95.80
2023-02-14T20:11:39.368Z,95.90
2023-02-14T20:14:07.155Z,95.70
2023-02-14T20:16:36.054Z,95.60
2023-02-14T20:19:11.435Z,95.70
2023-02-14T20:21:40.143Z,99.90
2023-02-14T20:24:08.809Z,96.70
2023-02-14T20:26:36.732Z,96.90
2023-02-14T20:29:04.152Z,96.90
2023-02-14T20:31:32.868Z,97.00
2023-02-14T20:33:59.505Z,97.70
2023-02-14T20:36:28.105Z,98.20
2023-02-14T20:38:59.933Z,98.70
2023-02-14T20:41:28.757Z,99.00
2023-02-14T20:43:56.161Z,99.80
2023-02-14T20:46:23.463Z,99.30
2023-02-14T20:48:50.401Z,99.90
2023-02-14T20:51:19.900Z,99.30
2023-02-14T20:53:48.210Z,99.30
2023-02-14T20:56:15.386Z,99.50
2023-02-14T20:58:42.747Z,99.90
2023-02-14T21:01:22.935Z,99.90
2023-02-14T21:03:50.428Z,99.90
2023-02-14T21:06:17.457Z,99.90
2023-02-14T21:08:44.937Z,99.90
2023-02-14T21:11:12.728Z,99.90
2023-02-14T21:13:39.358Z,99.90
2023-02-14T21:16:08.164Z,99.90
2023-02-14T21:18:35.421Z,99.90
2023-02-14T21:21:36.385Z,99.90
2023-02-14T21:24:08.624Z,99.90
2023-02-14T21:26:35.447Z,99.90
2023-02-14T21:29:02.060Z,99.90
2023-02-14T21:31:28.678Z,99.90
2023-02-14T21:33:56.804Z,99.90
2023-02-14T21:36:25.976Z,99.90
2023-02-14T21:38:54.688Z,99.90
2023-02-14T21:41:22.614Z,99.90
2023-02-14T21:43:51.788Z,99.90
2023-02-14T21:46:19.941Z,99.90
2023-02-14T21:49:05.562Z,99.90
2023-02-14T21:51:32.849Z,99.90
2023-02-14T21:53:59.324Z,99.90
2023-02-14T21:56:25.752Z,99.90
2023-02-14T21:58:52.906Z,99.90
2023-02-14T22:01:27.899Z,99.90
2023-02-14T22:03:54.647Z,99.90
2023-02-14T22:06:20.905Z,99.90
2023-02-14T22:08:54.886Z,99.90
2023-02-14T22:11:21.425Z,99.90
2023-02-14T22:13:48.063Z,99.90
2023-02-14T22:16:17.938Z,99.90
2023-02-14T22:18:48.389Z,99.90
2023-02-14T22:21:17.276Z,99.90
2023-02-14T22:23:44.698Z,99.90
2023-02-14T22:26:15.780Z,99.90
2023-02-14T22:28:44.007Z,99.90
2023-02-14T22:31:10.913Z,99.90
2023-02-14T22:33:38.048Z,99.90
2023-02-14T22:36:05.671Z,99.90
2023-02-14T22:38:32.977Z,99.90
2023-02-14T22:41:14.323Z,99.90
2023-02-14T22:43:40.966Z,99.90
2023-02-14T22:46:28.445Z,99.90
2023-02-14T22:48:56.792Z,99.90
2023-02-14T22:51:34.989Z,99.90
2023-02-14T22:54:04.284Z,99.90
2023-02-14T22:56:39.297Z,99.90
2023-02-14T22:59:15.778Z,99.90
2023-02-14T23:01:44.299Z,99.90
2023-02-14T23:06:38.446Z,99.90
2023-02-14T23:09:07.073Z,99.90
2023-02-14T23:11:35.293Z,99.90
2023-02-14T23:14:20.477Z,99.90
2023-02-14T23:17:06.466Z,99.90
2023-02-14T23:19:53.561Z,99.90
2023-02-14T23:22:25.341Z,99.90
2023-02-14T23:24:54.597Z,99.90
2023-02-14T23:27:23.631Z,99.90
2023-02-14T23:29:51.442Z,99.90
2023-02-14T23:32:18.950Z,99.90
2023-02-14T23:34:45.604Z,99.90
2023-02-14T23:37:12.952Z,99.90
2023-02-14T23:39:39.291Z,99.90
2023-02-14T23:42:06.697Z,99.90
2023-02-14T23:47:00.793Z,99.90
2023-02-14T23:49:27.242Z,99.90
2023-02-14T23:51:55.316Z,99.90
2023-02-14T23:54:21.935Z,99.90
2023-02-14T23:56:49.807Z,99.90
